Time;durP1;ratioP1;P1;durP2;ratioP2;P2;SDS_P1;SDS_P2;PMS_P1;PMS_P2;Temp;Humidity;BMP_temperature;BMP_pressure;BME280_temperature;BME280_humidity;BME280_pressure;Samples;Min_cycle;Max_cycle;Signal;HPM_P1;HPM_P2
2023/08/10 00:01:27;;;;;;;4.05;3.33;;;;;;;;;;10282255;28;20054;-89
2023/08/10 00:06:33;;;;;;;3.38;3.00;;;;;;;;;;10340731;28;20061;-89
2023/08/10 00:11:35;;;;;;;4.65;3.47;;;;;;;;;;10299521;28;20116;-88
2023/08/10 00:22:11;;;;;;;4.20;3.35;;;;;;;;;;10238390;28;20062;-89
2023/08/10 00:27:13;;;;;;;4.20;3.28;;;;;;;;;;10296040;28;20051;-88
2023/08/10 00:32:16;;;;;;;4.03;3.30;;;;;;;;;;10253532;28;20054;-89
2023/08/10 00:37:18;;;;;;;3.28;2.97;;;;;;;;;;10247788;28;20050;-88
2023/08/10 00:42:21;;;;;;;5.68;3.75;;;;;;;;;;10290705;28;20442;-89
2023/08/10 00:47:22;;;;;;;7.27;3.53;;;;;;;;;;10280402;28;20058;-88
2023/08/10 00:52:23;;;;;;;3.97;3.05;;;;;;;;;;10284274;28;20310;-88
2023/08/10 00:57:26;;;;;;;3.45;3.13;;;;;;;;;;10286976;28;20154;-88
2023/08/10 01:02:32;;;;;;;3.97;3.15;;;;;;;;;;10281938;28;20042;-89
2023/08/10 01:07:38;;;;;;;3.65;3.28;;;;;;;;;;10284021;28;20055;-88
2023/08/10 01:12:48;;;;;;;4.10;3.17;;;;;;;;;;10300005;28;20054;-89
2023/08/10 01:18:10;;;;;;;5.47;3.40;;;;;;;;;;10275552;28;20053;-89
2023/08/10 01:23:14;;;;;;;4.28;3.50;;;;;;;;;;10300745;28;20061;-89
2023/08/10 01:28:22;;;;;;;5.40;3.58;;;;;;;;;;10313719;28;20066;-89
2023/08/10 01:33:26;;;;;;;6.53;3.42;;;;;;;;;;10305135;28;20082;-88
2023/08/10 01:38:33;;;;;;;4.78;3.42;;;;;;;;;;10288979;28;20050;-88
2023/08/10 01:43:43;;;;;;;4.05;3.20;;;;;;;;;;10316276;28;20062;-89
2023/08/10 01:48:50;;;;;;;3.65;3.17;;;;;;;;;;10272291;28;20057;-88
2023/08/10 01:53:52;;;;;;;5.95;3.75;;;;;;;;;;10310997;28;20105;-88
2023/08/10 01:58:56;;;;;;;15.27;4.18;;;;;;;;;;10307307;28;20038;-88
2023/08/10 02:03:57;;;;;;;4.70;3.33;;;;;;;;;;10309548;23;20062;-88
2023/08/10 02:09:00;;;;;;;5.18;3.35;;;;;;;;;;10350396;28;20050;-89
2023/08/10 02:14:00;;;;;;;10.38;4.55;;;;;;;;;;10323015;28;20042;-89
2023/08/10 02:19:14;;;;;;;15.45;4.20;;;;;;;;;;10335279;28;20046;-88
2023/08/10 02:24:17;;;;;;;23.90;5.25;;;;;;;;;;10349622;28;20042;-88
2023/08/10 02:29:21;;;;;;;5.95;3.35;;;;;;;;;;10354337;28;20049;-89
2023/08/10 02:34:30;;;;;;;3.90;3.25;;;;;;;;;;10394934;28;20057;-89
2023/08/10 02:39:31;;;;;;;4.30;3.38;;;;;;;;;;10391627;28;20053;-87
2023/08/10 02:44:33;;;;;;;4.35;3.50;;;;;;;;;;10399000;28;20077;-90
2023/08/10 02:49:33;;;;;;;5.22;3.40;;;;;;;;;;10388829;28;20041;-90
2023/08/10 02:54:34;;;;;;;5.90;3.60;;;;;;;;;;10402934;28;20046;-88
2023/08/10 02:59:43;;;;;;;6.13;3.35;;;;;;;;;;10408356;28;20074;-89
2023/08/10 03:04:44;;;;;;;3.55;2.88;;;;;;;;;;10369127;28;20121;-89
2023/08/10 03:09:50;;;;;;;5.40;3.05;;;;;;;;;;10397294;28;20053;-88
2023/08/10 03:15:04;;;;;;;4.50;3.28;;;;;;;;;;10394367;28;20124;-88
2023/08/10 03:20:30;;;;;;;4.00;3.33;;;;;;;;;;10383225;28;20058;-89
2023/08/10 03:25:32;;;;;;;3.70;3.30;;;;;;;;;;10392353;28;20046;-91
2023/08/10 03:30:41;;;;;;;5.82;4.10;;;;;;;;;;10424327;28;20076;-88
2023/08/10 03:35:43;;;;;;;7.38;4.55;;;;;;;;;;10383987;28;20038;-91
2023/08/10 03:40:47;;;;;;;6.07;5.43;;;;;;;;;;10412509;28;20077;-91
2023/08/10 03:46:22;;;;;;;7.03;4.87;;;;;;;;;;10390895;28;20313;-88
2023/08/10 03:51:37;;;;;;;;;;;;;;;;;;;;;
2023/08/10 03:57:04;;;;;;;6.38;4.65;;;;;;;;;;10395936;28;20534;-90
2023/08/10 04:02:13;;;;;;;7.35;4.47;;;;;;;;;;10387467;28;20041;-90
2023/08/10 04:07:17;;;;;;;5.65;4.43;;;;;;;;;;10390783;28;20144;-89
2023/08/10 04:12:23;;;;;;;7.30;4.43;;;;;;;;;;10399219;28;20138;-90
2023/08/10 04:17:30;;;;;;;6.57;4.35;;;;;;;;;;10403963;28;20057;-89
2023/08/10 04:22:34;;;;;;;5.47;3.70;;;;;;;;;;10382092;28;20037;-88
2023/08/10 04:27:40;;;;;;;6.18;4.28;;;;;;;;;;10392155;28;20060;-89
2023/08/10 04:32:50;;;;;;;5.70;3.47;;;;;;;;;;10396171;28;20057;-89
2023/08/10 04:38:09;;;;;;;4.80;3.85;;;;;;;;;;10400287;28;20054;-89
2023/08/10 04:43:10;;;;;;;12.20;4.07;;;;;;;;;;10399001;28;20544;-91
2023/08/10 04:48:13;;;;;;;5.93;3.95;;;;;;;;;;10412994;28;20062;-91
2023/08/10 04:53:23;;;;;;;8.35;3.92;;;;;;;;;;10422808;28;20041;-88
2023/08/10 04:58:24;;;;;;;9.13;5.20;;;;;;;;;;10429504;28;20101;-89
2023/08/10 05:03:25;;;;;;;17.83;6.87;;;;;;;;;;10424314;28;20129;-90
2023/08/10 05:08:32;;;;;;;12.70;6.88;;;;;;;;;;10421403;28;20293;-88
2023/08/10 05:14:14;;;;;;;15.43;6.00;;;;;;;;;;10410392;28;20335;-90
2023/08/10 05:19:30;;;;;;;6.97;5.20;;;;;;;;;;10387839;28;20049;-90
2023/08/10 05:24:35;;;;;;;6.60;5.40;;;;;;;;;;10392117;28;20113;-90
2023/08/10 05:29:36;;;;;;;7.13;4.53;;;;;;;;;;10395836;28;20084;-89
2023/08/10 05:34:38;;;;;;;8.98;5.30;;;;;;;;;;10404080;28;20068;-92
2023/08/10 05:39:40;;;;;;;8.00;5.43;;;;;;;;;;10413918;28;20033;-89
2023/08/10 05:44:42;;;;;;;7.57;5.35;;;;;;;;;;10397711;28;20057;-89
2023/08/10 05:49:42;;;;;;;6.10;5.20;;;;;;;;;;10392331;28;20034;-91
2023/08/10 05:54:43;;;;;;;6.38;4.72;;;;;;;;;;10364289;28;20351;-88
2023/08/10 05:59:45;;;;;;;5.50;4.97;;;;;;;;;;10388909;28;20088;-89
2023/08/10 06:04:45;;;;;;;5.60;4.73;;;;;;;;;;10389750;28;20084;-90
2023/08/10 06:09:47;;;;;;;5.40;4.78;;;;;;;;;;10372377;28;20721;-88
2023/08/10 06:14:52;;;;;;;6.82;5.03;;;;;;;;;;10410944;28;20022;-88
2023/08/10 06:19:57;;;;;;;5.15;4.63;;;;;;;;;;10377984;28;20270;-88
2023/08/10 06:24:58;;;;;;;6.05;5.32;;;;;;;;;;10385130;28;20054;-89
2023/08/10 06:30:02;;;;;;;5.13;4.63;;;;;;;;;;10373969;28;20391;-88
2023/08/10 06:35:04;;;;;;;6.30;4.53;;;;;;;;;;10367942;28;20132;-89
2023/08/10 06:40:08;;;;;;;8.82;5.50;;;;;;;;;;10384167;28;20129;-89
2023/08/10 06:45:13;;;;;;;5.55;5.05;;;;;;;;;;10357568;28;20053;-88
2023/08/10 06:50:37;;;;;;;6.70;4.97;;;;;;;;;;10378699;28;20045;-89
2023/08/10 06:55:44;;;;;;;5.93;5.18;;;;;;;;;;10408472;28;20047;-89
2023/08/10 07:00:44;;;;;;;6.10;4.80;;;;;;;;;;10398447;28;20317;-89
2023/08/10 07:05:47;;;;;;;7.15;5.32;;;;;;;;;;10374423;28;20105;-88
2023/08/10 07:10:52;;;;;;;7.82;6.50;;;;;;;;;;10381766;28;20042;-86
2023/08/10 07:15:57;;;;;;;6.97;5.90;;;;;;;;;;10399382;28;20053;-88
2023/08/10 07:21:01;;;;;;;9.63;6.25;;;;;;;;;;10412772;28;20041;-89
2023/08/10 07:26:03;;;;;;;8.52;5.78;;;;;;;;;;10387129;28;20738;-91
2023/08/10 07:31:08;;;;;;;9.00;6.32;;;;;;;;;;10405696;28;20144;-90
2023/08/10 07:36:11;;;;;;;5.85;5.22;;;;;;;;;;10387309;28;20041;-89
2023/08/10 07:41:13;;;;;;;7.83;6.10;;;;;;;;;;11957254;23;20135;-91
2023/08/10 08:02:40;;;;;;;5.75;4.85;;;;;;;;;;11780933;23;19975;-87
2023/08/10 08:07:42;;;;;;;6.35;4.53;;;;;;;;;;10341120;28;20411;-88
2023/08/10 08:12:46;;;;;;;6.82;4.95;;;;;;;;;;10387335;28;20083;-90
2023/08/10 08:18:31;;;;;;;4.97;4.25;;;;;;;;;;10373411;28;20157;-89
2023/08/10 08:23:41;;;;;;;5.60;4.10;;;;;;;;;;10368329;28;20939;-89
2023/08/10 08:28:43;;;;;;;4.60;3.55;;;;;;;;;;10363224;28;20061;-89
2023/08/10 08:33:44;;;;;;;4.35;3.45;;;;;;;;;;10383977;28;20044;-89
2023/08/10 08:38:48;;;;;;;3.35;2.97;;;;;;;;;;10353422;28;20073;-88
2023/08/10 08:44:29;;;;;;;3.80;3.03;;;;;;;;;;10379354;28;20072;-89
2023/08/10 08:49:50;;;;;;;3.35;2.53;;;;;;;;;;10373454;28;20144;-88
2023/08/10 08:54:51;;;;;;;3.75;2.50;;;;;;;;;;10356075;28;20052;-90
2023/08/10 08:59:54;;;;;;;3.63;3.07;;;;;;;;;;10345940;28;20037;-88
2023/08/10 09:05:16;;;;;;;2.87;1.93;;;;;;;;;;10364047;28;20297;-88
2023/08/10 09:10:21;;;;;;;3.58;2.22;;;;;;;;;;10363067;28;20053;-87
2023/08/10 09:20:51;;;;;;;2.25;2.05;;;;;;;;;;10352174;28;20139;-88
2023/08/10 09:26:25;;;;;;;3.03;1.80;;;;;;;;;;10375061;28;20052;-88
2023/08/10 09:31:44;;;;;;;2.58;2.10;;;;;;;;;;10375251;28;20053;-88
2023/08/10 09:36:51;;;;;;;3.20;2.00;;;;;;;;;;10383497;28;20199;-90
2023/08/10 09:41:56;;;;;;;2.50;1.80;;;;;;;;;;10361259;28;20081;-88
2023/08/10 09:46:58;;;;;;;2.45;1.88;;;;;;;;;;10686679;23;20085;-88
2023/08/10 09:58:00;;;;;;;4.03;1.88;;;;;;;;;;10409751;23;20064;-88
2023/08/10 10:14:43;;;;;;;2.80;1.90;;;;;;;;;;10143593;29;20059;-88
2023/08/10 10:20:04;;;;;;;2.83;2.08;;;;;;;;;;10153975;28;20060;-89
2023/08/10 10:25:19;;;;;;;3.33;2.50;;;;;;;;;;10136416;29;20053;-87
2023/08/10 10:30:24;;;;;;;2.65;2.20;;;;;;;;;;10363097;23;20063;-89
2023/08/10 10:35:32;;;;;;;3.40;2.00;;;;;;;;;;10360802;23;20067;-87
2023/08/10 10:40:33;;;;;;;4.47;2.55;;;;;;;;;;10195784;29;20106;-89
2023/08/10 10:45:43;;;;;;;3.10;2.10;;;;;;;;;;10201280;29;20075;-87
2023/08/10 10:50:43;;;;;;;3.47;2.72;;;;;;;;;;10182141;29;20055;-87
2023/08/10 10:55:55;;;;;;;3.20;2.13;;;;;;;;;;10199899;28;20066;-87
2023/08/10 11:00:59;;;;;;;3.42;2.33;;;;;;;;;;10181844;28;20063;-87
2023/08/10 11:06:03;;;;;;;2.40;2.20;;;;;;;;;;10172571;28;20099;-87
2023/08/10 11:11:03;;;;;;;3.72;2.97;;;;;;;;;;10251886;28;20116;-87
2023/08/10 11:16:03;;;;;;;3.63;2.08;;;;;;;;;;10228061;28;20721;-88
2023/08/10 11:21:13;;;;;;;3.38;2.05;;;;;;;;;;10233163;28;20088;-88
2023/08/10 11:26:13;;;;;;;2.28;2.00;;;;;;;;;;10237514;28;20062;-87
2023/08/10 11:31:14;;;;;;;3.28;2.20;;;;;;;;;;10250396;28;20062;-87
2023/08/10 11:36:22;;;;;;;2.58;2.00;;;;;;;;;;10257053;28;20395;-87
2023/08/10 11:41:22;;;;;;;2.00;1.80;;;;;;;;;;10254692;28;20054;-87
2023/08/10 11:46:31;;;;;;;2.60;2.10;;;;;;;;;;10244902;28;20086;-87
2023/08/10 11:51:37;;;;;;;2.90;1.80;;;;;;;;;;10262449;28;20067;-86
2023/08/10 11:56:45;;;;;;;2.78;2.10;;;;;;;;;;10262694;28;20063;-87
2023/08/10 12:01:51;;;;;;;3.05;2.00;;;;;;;;;;10262022;28;20106;-86
2023/08/10 12:06:51;;;;;;;2.25;1.90;;;;;;;;;;10255927;28;20099;-86
2023/08/10 12:11:54;;;;;;;3.42;2.08;;;;;;;;;;10291576;28;20085;-87
2023/08/10 12:16:56;;;;;;;3.35;1.90;;;;;;;;;;10294402;28;20027;-87
2023/08/10 12:22:04;;;;;;;1.92;1.60;;;;;;;;;;10283560;28;20027;-86
2023/08/10 12:27:05;;;;;;;2.30;1.80;;;;;;;;;;10288280;28;20068;-89
2023/08/10 12:32:11;;;;;;;2.00;1.80;;;;;;;;;;10254511;28;20056;-88
2023/08/10 12:37:12;;;;;;;3.00;1.95;;;;;;;;;;10257903;28;20507;-87
2023/08/10 12:42:12;;;;;;;2.75;2.10;;;;;;;;;;10252142;28;20047;-87
2023/08/10 12:47:13;;;;;;;2.90;1.98;;;;;;;;;;10234633;28;20070;-88
2023/08/10 12:52:24;;;;;;;1.98;1.75;;;;;;;;;;10251818;28;20074;-88
2023/08/10 12:57:27;;;;;;;2.60;1.95;;;;;;;;;;10229724;28;20059;-87
2023/08/10 13:02:32;;;;;;;1.98;1.70;;;;;;;;;;10228532;28;20058;-87
2023/08/10 13:07:36;;;;;;;2.17;1.95;;;;;;;;;;10184234;23;20064;-87
2023/08/10 13:12:42;;;;;;;2.10;1.90;;;;;;;;;;10177840;29;20051;-87
2023/08/10 13:17:42;;;;;;;2.47;1.80;;;;;;;;;;10211516;28;20467;-87
2023/08/10 13:22:49;;;;;;;3.20;1.90;;;;;;;;;;10211531;29;20036;-88
2023/08/10 13:27:52;;;;;;;2.22;1.90;;;;;;;;;;10202843;29;20090;-84
2023/08/10 13:32:54;;;;;;;1.70;1.55;;;;;;;;;;10203673;29;20533;-86
2023/08/10 13:38:04;;;;;;;1.73;1.50;;;;;;;;;;10214889;29;20035;-87
2023/08/10 13:43:05;;;;;;;2.70;1.60;;;;;;;;;;10205456;29;20107;-85
2023/08/10 13:48:09;;;;;;;2.08;1.67;;;;;;;;;;10223643;29;20083;-86
2023/08/10 13:53:10;;;;;;;2.00;1.80;;;;;;;;;;10222268;29;20055;-88
2023/08/10 13:58:30;;;;;;;3.70;2.00;;;;;;;;;;10222466;28;20054;-87
2023/08/10 14:03:31;;;;;;;2.70;1.70;;;;;;;;;;10215491;28;20125;-87
2023/08/10 14:08:32;;;;;;;3.72;2.05;;;;;;;;;;10201607;29;20066;-88
2023/08/10 14:13:34;;;;;;;1.70;1.60;;;;;;;;;;10210040;29;20055;-87
2023/08/10 14:18:38;;;;;;;1.73;1.60;;;;;;;;;;10208877;29;20791;-87
2023/08/10 14:23:42;;;;;;;2.15;1.90;;;;;;;;;;10196465;29;20792;-88
2023/08/10 14:28:43;;;;;;;1.83;1.70;;;;;;;;;;10216721;29;20062;-87
2023/08/10 14:33:45;;;;;;;2.00;1.80;;;;;;;;;;10204302;28;20074;-86
2023/08/10 14:38:49;;;;;;;1.80;1.70;;;;;;;;;;10208536;28;20047;-88
2023/08/10 14:43:53;;;;;;;3.45;2.72;;;;;;;;;;10221343;29;20036;-87
2023/08/10 14:48:56;;;;;;;2.72;2.22;;;;;;;;;;10239100;28;20499;-87
2023/08/10 14:54:02;;;;;;;2.05;1.85;;;;;;;;;;10238943;29;20070;-86
2023/08/10 14:59:06;;;;;;;3.22;2.42;;;;;;;;;;10240833;29;20071;-88
2023/08/10 15:04:13;;;;;;;3.50;2.00;;;;;;;;;;10224619;29;20063;-87
2023/08/10 15:09:14;;;;;;;2.00;1.80;;;;;;;;;;10228458;28;20043;-88
2023/08/10 15:14:19;;;;;;;2.10;1.77;;;;;;;;;;10205969;29;20060;-87
2023/08/10 15:19:23;;;;;;;2.53;1.88;;;;;;;;;;10225378;28;20059;-87
2023/08/10 15:24:24;;;;;;;2.97;2.40;;;;;;;;;;10232170;28;20058;-87
2023/08/10 15:29:25;;;;;;;2.13;1.80;;;;;;;;;;10215490;29;20075;-87
2023/08/10 15:34:29;;;;;;;2.08;1.85;;;;;;;;;;10202165;29;20051;-87
2023/08/10 15:39:30;;;;;;;2.17;1.80;;;;;;;;;;10207000;29;20050;-85
2023/08/10 15:44:35;;;;;;;3.50;2.45;;;;;;;;;;10212698;29;20555;-86
2023/08/10 15:49:39;;;;;;;4.20;2.13;;;;;;;;;;10183779;29;20055;-87
2023/08/10 15:54:42;;;;;;;2.60;2.40;;;;;;;;;;10210322;29;20056;-87
2023/08/10 15:59:42;;;;;;;3.47;2.10;;;;;;;;;;10213003;29;20031;-89
2023/08/10 16:04:45;;;;;;;2.53;1.80;;;;;;;;;;10309926;23;20056;-88
2023/08/10 16:09:47;;;;;;;3.67;2.08;;;;;;;;;;10223687;28;20085;-86
2023/08/10 16:14:48;;;;;;;2.00;1.80;;;;;;;;;;10270366;28;20050;-86
2023/08/10 16:19:52;;;;;;;1.88;1.77;;;;;;;;;;10265413;28;20035;-86
2023/08/10 16:24:53;;;;;;;2.17;1.98;;;;;;;;;;10215601;28;20078;-86
2023/08/10 16:30:05;;;;;;;4.05;1.92;;;;;;;;;;10245169;28;20062;-86
2023/08/10 16:35:11;;;;;;;2.15;1.75;;;;;;;;;;10249476;28;20442;-89
2023/08/10 16:40:13;;;;;;;3.17;1.73;;;;;;;;;;10283463;28;20047;-86
2023/08/10 16:45:14;;;;;;;2.05;1.80;;;;;;;;;;10258643;28;20480;-88
2023/08/10 16:50:18;;;;;;;2.80;2.05;;;;;;;;;;10283240;28;20047;-87
2023/08/10 16:55:23;;;;;;;4.03;2.17;;;;;;;;;;10259793;28;20058;-87
2023/08/10 17:00:25;;;;;;;2.63;1.80;;;;;;;;;;10271481;28;20479;-87
2023/08/10 17:05:26;;;;;;;2.10;1.85;;;;;;;;;;10250948;28;20052;-86
2023/08/10 17:10:27;;;;;;;3.22;2.50;;;;;;;;;;10238785;28;20586;-86
2023/08/10 17:15:28;;;;;;;2.55;2.20;;;;;;;;;;10241623;28;20051;-86
2023/08/10 17:20:29;;;;;;;3.10;2.70;;;;;;;;;;10244871;28;20053;-85
2023/08/10 17:25:29;;;;;;;3.53;2.95;;;;;;;;;;10206278;28;20058;-85
2023/08/10 17:30:30;;;;;;;2.72;2.10;;;;;;;;;;10241969;28;20047;-87
2023/08/10 17:35:33;;;;;;;3.58;2.85;;;;;;;;;;10239700;28;20118;-85
2023/08/10 17:40:41;;;;;;;2.28;1.83;;;;;;;;;;10243970;28;20060;-85
2023/08/10 17:45:54;;;;;;;2.10;1.90;;;;;;;;;;10261678;28;20051;-86
2023/08/10 17:50:57;;;;;;;3.05;1.95;;;;;;;;;;10254221;28;20051;-85
2023/08/10 17:55:59;;;;;;;2.97;2.10;;;;;;;;;;10228188;28;20051;-87
2023/08/10 18:01:06;;;;;;;4.47;3.60;;;;;;;;;;10240719;28;20119;-88
2023/08/10 18:06:07;;;;;;;3.85;3.22;;;;;;;;;;10240616;28;20062;-85
2023/08/10 18:11:09;;;;;;;3.03;2.72;;;;;;;;;;10229790;28;20044;-87
2023/08/10 18:16:13;;;;;;;5.63;2.90;;;;;;;;;;10265933;28;20050;-86
2023/08/10 18:21:13;;;;;;;3.97;3.58;;;;;;;;;;10245048;28;20044;-85
2023/08/10 18:26:16;;;;;;;5.15;4.43;;;;;;;;;;10252264;28;20066;-85
2023/08/10 18:31:19;;;;;;;4.55;3.60;;;;;;;;;;10237595;28;20047;-85
2023/08/10 18:36:22;;;;;;;5.95;4.43;;;;;;;;;;10238434;28;20050;-89
2023/08/10 18:41:23;;;;;;;5.50;3.80;;;;;;;;;;10234841;28;20054;-85
2023/08/10 18:46:23;;;;;;;4.00;3.17;;;;;;;;;;10240712;28;20094;-86
2023/08/10 18:51:25;;;;;;;2.97;2.67;;;;;;;;;;10244935;28;20303;-85
2023/08/10 18:56:25;;;;;;;3.10;2.80;;;;;;;;;;10244215;28;20107;-86
2023/08/10 19:01:32;;;;;;;3.95;3.50;;;;;;;;;;10240624;28;20055;-85
2023/08/10 19:06:34;;;;;;;4.97;3.40;;;;;;;;;;10237442;28;20059;-86
2023/08/10 19:11:35;;;;;;;3.60;3.08;;;;;;;;;;10219041;28;20491;-86
2023/08/10 19:16:35;;;;;;;3.93;3.43;;;;;;;;;;10241623;28;20049;-85
2023/08/10 19:21:38;;;;;;;4.10;3.70;;;;;;;;;;10230726;28;20051;-85
2023/08/10 19:26:42;;;;;;;4.32;3.92;;;;;;;;;;10235000;28;20070;-85
2023/08/10 19:31:55;;;;;;;5.03;3.90;;;;;;;;;;10270500;28;20102;-86
2023/08/10 19:36:56;;;;;;;6.00;4.30;;;;;;;;;;10266706;28;20048;-87
2023/08/10 19:41:59;;;;;;;4.75;4.20;;;;;;;;;;10278457;28;20058;-86
2023/08/10 19:47:00;;;;;;;6.85;5.07;;;;;;;;;;10271651;28;20058;-86
2023/08/10 19:52:05;;;;;;;6.00;5.20;;;;;;;;;;10272139;28;20046;-86
2023/08/10 19:57:11;;;;;;;5.53;4.82;;;;;;;;;;10276487;28;20054;-87
2023/08/10 20:02:45;;;;;;;5.43;4.85;;;;;;;;;;10283130;28;20203;-87
2023/08/10 20:07:47;;;;;;;5.60;5.00;;;;;;;;;;10255111;28;20059;-86
2023/08/10 20:12:53;;;;;;;6.05;5.07;;;;;;;;;;10268241;28;20047;-85
2023/08/10 20:17:55;;;;;;;4.88;4.15;;;;;;;;;;10241259;28;20585;-87
2023/08/10 20:22:57;;;;;;;6.78;4.97;;;;;;;;;;10230239;28;20147;-86
2023/08/10 20:28:07;;;;;;;7.13;5.75;;;;;;;;;;10232299;28;20133;-88
2023/08/10 20:33:22;;;;;;;7.50;5.55;;;;;;;;;;10263210;28;20054;-89
2023/08/10 20:38:23;;;;;;;8.38;5.35;;;;;;;;;;10244824;28;20111;-84
2023/08/10 20:43:24;;;;;;;7.18;6.00;;;;;;;;;;10258276;28;20546;-85
2023/08/10 20:48:31;;;;;;;7.57;5.97;;;;;;;;;;10253854;28;20476;-85
2023/08/10 20:53:32;;;;;;;7.40;5.60;;;;;;;;;;10268249;28;20043;-85
2023/08/10 20:58:34;;;;;;;7.05;5.75;;;;;;;;;;10232414;28;20055;-86
2023/08/10 21:03:37;;;;;;;8.67;7.03;;;;;;;;;;10248322;28;20039;-85
2023/08/10 21:08:39;;;;;;;7.65;6.15;;;;;;;;;;10235325;28;20075;-84
2023/08/10 21:13:41;;;;;;;6.17;5.57;;;;;;;;;;10222790;28;20051;-84
2023/08/10 21:18:42;;;;;;;7.53;5.97;;;;;;;;;;10223486;28;20083;-84
2023/08/10 21:23:46;;;;;;;5.90;4.82;;;;;;;;;;10228054;28;20582;-87
2023/08/10 21:28:48;;;;;;;7.68;5.72;;;;;;;;;;10250272;28;20119;-85
2023/08/10 21:33:50;;;;;;;6.40;5.60;;;;;;;;;;10274707;28;20046;-87
2023/08/10 21:38:54;;;;;;;6.22;5.25;;;;;;;;;;10272140;28;20059;-86
2023/08/10 21:43:54;;;;;;;6.57;5.95;;;;;;;;;;10224189;28;20058;-87
2023/08/10 21:48:55;;;;;;;6.77;5.20;;;;;;;;;;10224222;28;20058;-87
2023/08/10 21:53:56;;;;;;;5.60;4.95;;;;;;;;;;10219588;28;20365;-85
2023/08/10 21:58:56;;;;;;;6.10;5.50;;;;;;;;;;10245883;28;20520;-85
2023/08/10 22:03:57;;;;;;;5.97;5.13;;;;;;;;;;10249893;28;20122;-84
2023/08/10 22:08:59;;;;;;;7.88;5.15;;;;;;;;;;10240344;28;20058;-84
2023/08/10 22:14:03;;;;;;;5.97;5.38;;;;;;;;;;10253413;28;20054;-85
2023/08/10 22:19:06;;;;;;;6.95;5.03;;;;;;;;;;10225059;28;20610;-87
2023/08/10 22:24:08;;;;;;;7.13;5.25;;;;;;;;;;10251254;28;20053;-86
2023/08/10 22:29:13;;;;;;;6.60;4.78;;;;;;;;;;10243481;28;20059;-87
2023/08/10 22:34:13;;;;;;;5.43;4.68;;;;;;;;;;10222859;28;20142;-86
2023/08/10 22:39:15;;;;;;;6.43;5.43;;;;;;;;;;10256220;28;20183;-83
2023/08/10 22:44:16;;;;;;;6.00;5.30;;;;;;;;;;10268278;28;20443;-84
2023/08/10 22:49:16;;;;;;;6.05;5.45;;;;;;;;;;10245474;28;20062;-85
2023/08/10 22:54:18;;;;;;;6.82;5.78;;;;;;;;;;10241111;28;20045;-86
2023/08/10 22:59:19;;;;;;;7.00;5.93;;;;;;;;;;10244437;28;20141;-84
2023/08/10 23:04:27;;;;;;;7.43;5.72;;;;;;;;;;10234974;28;20047;-85
2023/08/10 23:09:30;;;;;;;6.68;6.03;;;;;;;;;;10237830;28;20063;-84
2023/08/10 23:14:31;;;;;;;6.60;5.70;;;;;;;;;;10201685;28;20586;-85
2023/08/10 23:19:31;;;;;;;6.23;5.63;;;;;;;;;;10220688;28;20054;-84
2023/08/10 23:24:31;;;;;;;5.83;5.23;;;;;;;;;;10235274;28;20117;-85
2023/08/10 23:29:33;;;;;;;5.63;5.00;;;;;;;;;;10232395;28;20335;-87
2023/08/10 23:34:35;;;;;;;6.03;4.97;;;;;;;;;;10228270;28;20165;-85
2023/08/10 23:39:38;;;;;;;5.20;4.70;;;;;;;;;;10238410;28;20133;-84
2023/08/10 23:44:40;;;;;;;6.13;5.07;;;;;;;;;;10243610;28;20261;-85
2023/08/10 23:49:40;;;;;;;6.68;4.65;;;;;;;;;;10243416;28;20389;-84
2023/08/10 23:54:41;;;;;;;7.87;5.20;;;;;;;;;;10240233;28;20039;-85
2023/08/10 23:59:42;;;;;;;7.07;4.80;;;;;;;;;;10238160;28;20097;-85
